createdAt,value
2018-08-16T00:02:26.244Z,8.73
2018-08-16T00:04:53.593Z,9.47
2018-08-16T00:07:21.007Z,11.37
2018-08-16T00:09:48.415Z,8.97
2018-08-16T00:12:16.330Z,10.37
2018-08-16T00:14:43.665Z,15.20
2018-08-16T00:17:11.101Z,11.13
2018-08-16T00:19:39.325Z,10.77
2018-08-16T00:22:06.867Z,10.00
2018-08-16T00:24:34.244Z,9.33
2018-08-16T00:27:01.712Z,12.27
2018-08-16T00:29:29.381Z,10.37
2018-08-16T00:31:56.836Z,11.57
2018-08-16T00:34:25.276Z,8.87
2018-08-16T00:36:52.628Z,10.17
2018-08-16T00:39:20.377Z,11.37
2018-08-16T00:41:47.687Z,12.23
2018-08-16T00:44:15.247Z,9.10
2018-08-16T00:46:43.245Z,9.03
2018-08-16T00:49:10.703Z,11.50
2018-08-16T00:51:37.959Z,9.80
2018-08-16T00:54:05.711Z,10.20
2018-08-16T00:56:33.245Z,10.83
2018-08-16T00:59:00.726Z,11.03
2018-08-16T01:01:28.186Z,11.83
2018-08-16T01:03:55.641Z,9.77
2018-08-16T01:06:22.965Z,12.23
2018-08-16T01:08:50.645Z,10.80
2018-08-16T01:11:19.107Z,11.20
2018-08-16T01:13:46.494Z,13.00
2018-08-16T01:16:13.961Z,11.77
2018-08-16T01:18:41.281Z,14.50
2018-08-16T01:21:09.391Z,14.63
2018-08-16T01:23:37.169Z,13.70
2018-08-16T01:26:04.886Z,14.30
2018-08-16T01:28:32.449Z,17.07
2018-08-16T01:31:00.165Z,16.07
2018-08-16T01:33:27.734Z,14.77
2018-08-16T01:35:55.522Z,15.37
2018-08-16T01:38:23.178Z,14.87
2018-08-16T01:40:51.235Z,13.40
2018-08-16T01:43:18.662Z,12.03
2018-08-16T01:45:47.149Z,12.40
2018-08-16T01:48:14.407Z,13.00
2018-08-16T01:50:42.554Z,13.13
2018-08-16T01:53:10.150Z,11.27
2018-08-16T01:55:37.540Z,12.93
2018-08-16T01:58:05.046Z,13.17
2018-08-16T02:00:32.656Z,14.20
2018-08-16T02:03:00.522Z,15.50
2018-08-16T02:05:27.824Z,12.47
2018-08-16T02:07:55.155Z,14.47
2018-08-16T02:10:22.399Z,11.53
2018-08-16T02:12:49.708Z,11.60
2018-08-16T02:15:17.153Z,13.13
2018-08-16T02:17:44.584Z,12.53
2018-08-16T02:20:13.754Z,14.23
2018-08-16T02:22:42.087Z,12.73
2018-08-16T02:25:09.630Z,10.90
2018-08-16T02:27:36.961Z,13.00
2018-08-16T02:30:05.809Z,12.40
2018-08-16T02:32:33.096Z,13.30
2018-08-16T02:35:00.558Z,13.07
2018-08-16T02:37:27.999Z,11.87
2018-08-16T02:39:55.965Z,16.47
2018-08-16T02:42:23.470Z,10.17
2018-08-16T02:44:50.877Z,13.17
2018-08-16T02:47:18.166Z,13.77
2018-08-16T02:49:45.478Z,11.60
2018-08-16T02:52:13.291Z,12.00
2018-08-16T02:54:40.802Z,12.80
2018-08-16T02:57:08.635Z,16.27
2018-08-16T02:59:35.907Z,13.43
2018-08-16T03:02:04.469Z,16.03
2018-08-16T03:04:31.972Z,13.67
2018-08-16T03:06:59.264Z,12.73
2018-08-16T03:09:26.528Z,14.97
2018-08-16T03:11:53.844Z,8.77
2018-08-16T03:14:21.462Z,12.57
2018-08-16T03:16:48.905Z,12.07
2018-08-16T03:19:16.397Z,12.80
2018-08-16T03:21:43.724Z,10.20
2018-08-16T03:24:11.031Z,11.27
2018-08-16T03:26:38.816Z,10.30
2018-08-16T03:29:06.096Z,15.13
2018-08-16T03:31:33.788Z,13.10
2018-08-16T03:34:01.166Z,12.60
2018-08-16T03:36:28.429Z,12.23
2018-08-16T03:38:56.521Z,11.27
2018-08-16T03:41:23.891Z,11.53
2018-08-16T03:43:51.899Z,14.27
2018-08-16T03:46:19.374Z,11.63
2018-08-16T03:48:46.777Z,10.70
2018-08-16T03:51:14.106Z,14.03
2018-08-16T03:53:41.722Z,13.90
2018-08-16T03:56:09.633Z,16.57
2018-08-16T03:58:37.008Z,12.73
2018-08-16T04:01:04.926Z,11.77
2018-08-16T04:03:32.220Z,14.07
2018-08-16T04:05:59.603Z,14.77
2018-08-16T04:08:26.909Z,12.27
2018-08-16T04:10:55.846Z,15.20
2018-08-16T04:13:23.209Z,11.40
2018-08-16T04:15:51.101Z,12.50
2018-08-16T04:18:18.962Z,11.17
2018-08-16T04:20:46.359Z,10.90
2018-08-16T04:23:14.021Z,12.37
2018-08-16T04:25:41.553Z,13.17
2018-08-16T04:28:09.047Z,11.57
2018-08-16T04:30:36.399Z,12.10
2018-08-16T04:33:03.853Z,13.27
2018-08-16T04:35:31.624Z,12.63
2018-08-16T04:37:58.833Z,10.90
2018-08-16T04:40:26.167Z,11.10
2018-08-16T04:42:54.033Z,11.73
2018-08-16T04:45:25.550Z,12.83
2018-08-16T04:47:53.052Z,14.37
2018-08-16T04:50:20.949Z,11.97
2018-08-16T04:52:48.348Z,11.13
2018-08-16T04:55:15.652Z,12.90
2018-08-16T04:57:43.383Z,11.93
2018-08-16T05:00:12.023Z,12.00
2018-08-16T05:02:39.782Z,11.90
2018-08-16T05:05:07.522Z,13.57
2018-08-16T05:07:35.132Z,12.50
2018-08-16T05:10:03.104Z,14.60
2018-08-16T05:12:39.774Z,11.97
2018-08-16T05:15:12.334Z,14.93
2018-08-16T05:17:40.241Z,13.07
2018-08-16T05:20:09.936Z,13.93
2018-08-16T05:22:37.250Z,11.57
2018-08-16T05:25:05.265Z,12.33
2018-08-16T05:27:33.513Z,15.70
2018-08-16T05:30:00.869Z,13.87
2018-08-16T05:32:32.156Z,14.83
2018-08-16T05:34:59.683Z,11.00
2018-08-16T05:37:27.059Z,14.40
2018-08-16T05:39:54.483Z,13.23
2018-08-16T05:42:21.835Z,12.13
2018-08-16T05:44:49.263Z,12.60
2018-08-16T05:47:17.514Z,17.53
2018-08-16T05:49:45.001Z,14.30
2018-08-16T05:52:12.383Z,15.83
2018-08-16T05:54:39.823Z,13.93
2018-08-16T05:57:07.247Z,10.97
2018-08-16T05:59:34.635Z,9.33
2018-08-16T06:02:01.923Z,9.97
2018-08-16T06:04:30.638Z,11.67
2018-08-16T06:06:58.109Z,12.43
2018-08-16T06:09:25.699Z,10.80
2018-08-16T06:11:53.057Z,11.50
2018-08-16T06:14:21.044Z,12.13
2018-08-16T06:16:48.414Z,9.27
2018-08-16T06:19:15.735Z,12.27
2018-08-16T06:21:43.099Z,12.37
2018-08-16T06:24:10.757Z,13.77
2018-08-16T06:26:37.960Z,13.03
2018-08-16T06:29:06.214Z,10.97
2018-08-16T06:31:33.909Z,11.97
2018-08-16T06:34:01.374Z,10.70
2018-08-16T06:36:28.685Z,10.97
2018-08-16T06:38:56.218Z,11.67
2018-08-16T06:41:23.467Z,8.30
2018-08-16T06:43:50.718Z,9.70
2018-08-16T06:46:18.501Z,10.37
2018-08-16T06:48:45.928Z,10.50
2018-08-16T06:51:13.289Z,7.83
2018-08-16T06:53:41.360Z,8.50
2018-08-16T06:56:09.049Z,8.70
2018-08-16T06:58:36.593Z,8.50
2018-08-16T07:01:04.281Z,7.93
2018-08-16T07:03:31.994Z,8.80
2018-08-16T07:05:59.569Z,7.50
2018-08-16T07:08:27.290Z,7.87
2018-08-16T07:10:54.653Z,7.07
2018-08-16T07:13:22.065Z,6.77
2018-08-16T07:15:49.497Z,7.13
2018-08-16T07:18:16.995Z,8.17
2018-08-16T07:20:44.451Z,8.77
2018-08-16T07:23:12.497Z,5.60
2018-08-16T07:25:39.863Z,6.47
2018-08-16T07:28:07.232Z,6.80
2018-08-16T07:30:34.681Z,8.47
2018-08-16T07:33:02.068Z,7.63
2018-08-16T07:35:29.499Z,8.03
2018-08-16T07:37:57.723Z,6.73
2018-08-16T07:40:25.107Z,5.97
2018-08-16T07:42:52.490Z,8.23
2018-08-16T07:45:19.928Z,6.13
2018-08-16T07:47:47.384Z,5.43
2018-08-16T07:50:14.898Z,7.77
2018-08-16T07:52:42.345Z,13.43
2018-08-16T07:55:10.179Z,17.70
2018-08-16T07:57:37.555Z,16.27
2018-08-16T08:00:08.270Z,10.37
2018-08-16T08:02:35.657Z,15.67
2018-08-16T08:05:03.117Z,12.23
2018-08-16T08:07:30.588Z,4.47
2018-08-16T08:09:57.943Z,8.63
2018-08-16T08:12:25.705Z,11.83
2018-08-16T08:14:53.237Z,7.57
2018-08-16T08:17:20.690Z,5.43
2018-08-16T08:19:48.034Z,18.30
2018-08-16T08:22:15.556Z,4.80
2018-08-16T08:24:43.164Z,7.10
2018-08-16T08:27:10.812Z,8.87
2018-08-16T08:29:38.348Z,27.43
2018-08-16T08:32:05.971Z,26.43
2018-08-16T08:34:34.228Z,18.83
2018-08-16T08:37:12.810Z,19.60
2018-08-16T08:39:40.113Z,18.57
2018-08-16T08:42:07.524Z,14.70
2018-08-16T08:44:34.988Z,24.03
2018-08-16T08:47:02.382Z,37.47
2018-08-16T08:49:30.504Z,15.17
2018-08-16T08:51:57.934Z,15.63
2018-08-16T08:54:49.263Z,12.03
2018-08-16T08:57:28.039Z,28.00
2018-08-16T08:59:55.443Z,13.40
2018-08-16T09:02:22.769Z,8.70
2018-08-16T09:04:50.146Z,5.10
2018-08-16T09:07:18.368Z,6.43
2018-08-16T09:11:02.159Z,5.37
2018-08-16T09:13:40.956Z,6.87
2018-08-16T09:16:14.459Z,6.17
2018-08-16T09:18:41.921Z,7.17
2018-08-16T09:21:10.060Z,5.90
2018-08-16T09:23:37.654Z,5.53
2018-08-16T09:26:11.206Z,7.87
2018-08-16T09:28:39.442Z,6.27
2018-08-16T09:31:18.744Z,5.20
2018-08-16T09:33:57.701Z,9.13
2018-08-16T09:36:25.214Z,7.17
2018-08-16T09:38:59.524Z,9.67
2018-08-16T09:41:27.412Z,5.90
2018-08-16T09:43:54.898Z,5.87
2018-08-16T09:47:12.884Z,7.00
2018-08-16T09:49:42.077Z,5.83
2018-08-16T09:52:10.588Z,6.00
2018-08-16T09:54:37.953Z,5.83
2018-08-16T09:57:07.020Z,6.37
2018-08-16T09:59:35.132Z,5.03
2018-08-16T10:02:02.841Z,5.50
2018-08-16T10:04:30.425Z,7.50
2018-08-16T10:06:58.476Z,6.30
2018-08-16T10:09:27.454Z,4.97
2018-08-16T10:11:55.984Z,5.83
2018-08-16T10:14:23.512Z,4.70
2018-08-16T10:16:51.103Z,5.50
2018-08-16T10:19:18.862Z,4.47
2018-08-16T10:21:46.568Z,6.23
2018-08-16T10:24:13.881Z,5.00
2018-08-16T10:26:41.491Z,6.50
2018-08-16T10:29:09.521Z,4.80
2018-08-16T10:31:37.165Z,6.60
2018-08-16T10:34:04.597Z,5.47
2018-08-16T10:36:32.148Z,5.47
2018-08-16T10:38:59.779Z,5.60
2018-08-16T10:41:27.715Z,4.90
2018-08-16T10:43:55.864Z,5.93
2018-08-16T10:46:23.316Z,6.20
2018-08-16T10:48:51.255Z,5.47
2018-08-16T10:51:18.696Z,7.37
2018-08-16T10:53:46.045Z,7.27
2018-08-16T10:56:13.800Z,6.77
2018-08-16T10:58:41.243Z,5.80
2018-08-16T11:01:09.656Z,5.17
2018-08-16T11:03:37.183Z,6.27
2018-08-16T11:06:04.756Z,4.90
2018-08-16T11:08:32.137Z,6.70
2018-08-16T11:10:59.699Z,5.73
2018-08-16T11:13:27.379Z,5.83
2018-08-16T11:15:55.083Z,4.93
2018-08-16T11:18:22.622Z,5.70
2018-08-16T11:20:50.317Z,5.57
2018-08-16T11:23:17.697Z,5.27
2018-08-16T11:25:45.187Z,5.10
2018-08-16T11:28:12.603Z,4.90
2018-08-16T11:30:40.062Z,5.60
2018-08-16T11:33:07.917Z,5.43
2018-08-16T11:35:35.371Z,6.30
2018-08-16T11:38:02.863Z,5.60
2018-08-16T11:40:30.310Z,5.87
2018-08-16T11:42:57.669Z,6.27
2018-08-16T11:45:25.167Z,6.03
2018-08-16T11:47:52.707Z,5.20
2018-08-16T11:50:20.062Z,5.50
2018-08-16T11:52:47.465Z,5.77
2018-08-16T11:55:14.807Z,5.53
2018-08-16T11:57:42.136Z,5.77
2018-08-16T12:00:09.461Z,6.90
2018-08-16T12:02:36.841Z,6.63
2018-08-16T12:05:04.172Z,5.63
2018-08-16T12:07:31.670Z,6.43
2018-08-16T12:09:59.653Z,5.50
2018-08-16T12:12:27.216Z,5.33
2018-08-16T12:14:54.698Z,6.23
2018-08-16T12:17:22.082Z,6.30
2018-08-16T12:19:49.586Z,5.43
2018-08-16T12:22:17.346Z,6.13
2018-08-16T12:24:44.696Z,6.10
2018-08-16T12:27:12.038Z,5.43
2018-08-16T12:29:39.398Z,5.87
2018-08-16T12:32:07.103Z,6.07
2018-08-16T12:34:34.804Z,5.27
2018-08-16T12:37:02.286Z,7.23
2018-08-16T12:39:29.762Z,6.73
2018-08-16T12:41:57.157Z,7.13
2018-08-16T12:44:24.633Z,5.73
2018-08-16T12:46:51.981Z,5.73
2018-08-16T12:49:19.397Z,5.60
2018-08-16T12:51:47.570Z,5.97
2018-08-16T12:54:14.992Z,6.80
2018-08-16T12:56:43.066Z,6.37
2018-08-16T12:59:10.493Z,6.47
2018-08-16T13:01:37.904Z,9.40
2018-08-16T13:04:05.362Z,6.47
2018-08-16T13:06:32.926Z,6.60
2018-08-16T13:09:00.461Z,6.73
2018-08-16T13:11:27.991Z,7.17
2018-08-16T13:13:55.394Z,6.83
2018-08-16T13:16:23.029Z,6.87
2018-08-16T13:18:50.536Z,6.50
2018-08-16T13:21:18.010Z,7.10
2018-08-16T13:23:45.722Z,6.30
2018-08-16T13:26:13.221Z,7.20
2018-08-16T13:28:40.575Z,8.10
2018-08-16T13:31:07.965Z,7.83
2018-08-16T13:33:36.399Z,10.10
2018-08-16T13:36:03.789Z,6.73
2018-08-16T13:38:31.305Z,7.47
2018-08-16T13:40:58.770Z,6.70
2018-08-16T13:43:26.261Z,6.83
2018-08-16T13:45:53.777Z,6.90
2018-08-16T13:48:21.762Z,7.07
2018-08-16T13:50:49.258Z,9.87
2018-08-16T13:53:16.570Z,7.07
2018-08-16T13:55:44.369Z,7.03
2018-08-16T13:58:11.723Z,7.97
2018-08-16T14:00:39.199Z,6.57
2018-08-16T14:03:06.751Z,7.50
2018-08-16T14:05:34.114Z,6.10
2018-08-16T14:08:01.533Z,6.40
2018-08-16T14:10:28.948Z,6.37
2018-08-16T14:12:56.384Z,7.80
2018-08-16T14:15:24.133Z,6.83
2018-08-16T14:17:51.561Z,6.57
2018-08-16T14:20:18.998Z,7.70
2018-08-16T14:22:46.423Z,7.20
2018-08-16T14:25:13.997Z,6.50
2018-08-16T14:27:41.443Z,6.13
2018-08-16T14:30:09.176Z,9.73
2018-08-16T14:32:36.798Z,7.37
2018-08-16T14:35:04.330Z,6.60
2018-08-16T14:37:31.730Z,6.10
2018-08-16T14:39:59.232Z,6.20
2018-08-16T14:42:27.397Z,7.23
2018-08-16T14:44:54.890Z,7.93
2018-08-16T14:47:22.478Z,6.67
2018-08-16T14:49:49.955Z,12.73
2018-08-16T14:52:17.518Z,7.67
2018-08-16T14:54:44.935Z,7.90
2018-08-16T14:57:12.365Z,5.83
2018-08-16T14:59:40.027Z,8.40
2018-08-16T15:02:07.479Z,6.87
2018-08-16T15:04:34.916Z,6.77
2018-08-16T15:07:02.528Z,6.60
2018-08-16T15:09:29.971Z,6.13
2018-08-16T15:11:57.507Z,6.17
2018-08-16T15:14:25.093Z,6.83
2018-08-16T15:16:52.513Z,5.37
2018-08-16T15:19:19.941Z,7.10
2018-08-16T15:21:47.508Z,7.07
2018-08-16T15:24:18.457Z,7.50
2018-08-16T15:26:45.970Z,5.47
2018-08-16T15:29:13.388Z,6.07
2018-08-16T15:31:40.882Z,7.47
2018-08-16T15:34:09.015Z,9.13
2018-08-16T15:36:36.604Z,5.67
2018-08-16T15:39:06.474Z,6.20
2018-08-16T15:41:34.029Z,5.17
2018-08-16T15:44:01.603Z,6.17
2018-08-16T15:46:29.049Z,5.63
2018-08-16T15:48:56.434Z,8.80
2018-08-16T15:51:24.105Z,5.03
2018-08-16T15:53:51.679Z,6.80
2018-08-16T15:56:18.983Z,6.53
2018-08-16T15:58:46.437Z,7.60
2018-08-16T16:01:14.116Z,21.20
2018-08-16T16:03:41.506Z,8.60
2018-08-16T16:06:09.796Z,6.03
2018-08-16T16:08:37.307Z,12.30
2018-08-16T16:11:04.878Z,5.53
2018-08-16T16:13:32.561Z,6.23
2018-08-16T16:16:00.017Z,7.23
2018-08-16T16:18:27.578Z,5.57
2018-08-16T16:20:55.018Z,4.33
2018-08-16T16:23:22.433Z,3.93
2018-08-16T16:25:49.929Z,6.77
2018-08-16T16:28:17.376Z,13.17
2018-08-16T16:30:45.707Z,6.10
2018-08-16T16:33:13.073Z,4.13
2018-08-16T16:35:40.517Z,5.20
2018-08-16T16:38:07.894Z,4.93
2018-08-16T16:40:35.851Z,5.73
2018-08-16T16:43:03.227Z,6.97
2018-08-16T16:45:30.711Z,3.53
2018-08-16T16:47:58.142Z,6.10
2018-08-16T16:50:25.691Z,6.57
2018-08-16T16:52:53.241Z,4.93
2018-08-16T16:55:20.721Z,5.57
2018-08-16T16:57:48.147Z,4.87
2018-08-16T17:00:15.636Z,5.10
2018-08-16T17:02:43.074Z,6.73
2018-08-16T17:05:10.984Z,4.33
2018-08-16T17:07:38.438Z,4.93
2018-08-16T17:10:07.537Z,4.07
2018-08-16T17:12:34.894Z,5.33
2018-08-16T17:15:02.379Z,6.70
2018-08-16T17:17:29.879Z,5.47
2018-08-16T17:19:57.457Z,5.17
2018-08-16T17:22:25.889Z,4.10
2018-08-16T17:24:53.332Z,4.50
2018-08-16T17:27:20.839Z,5.33
2018-08-16T17:29:48.544Z,4.30
2018-08-16T17:32:16.188Z,5.17
2018-08-16T17:34:43.677Z,4.10
2018-08-16T17:37:11.861Z,5.30
2018-08-16T17:39:39.550Z,6.33
2018-08-16T17:42:07.425Z,5.17
2018-08-16T17:44:35.545Z,7.57
2018-08-16T17:47:03.072Z,5.53
2018-08-16T17:49:30.561Z,4.33
2018-08-16T17:51:58.022Z,3.80
2018-08-16T17:54:25.732Z,5.70
2018-08-16T17:56:53.112Z,4.07
2018-08-16T17:59:20.629Z,5.07
2018-08-16T18:01:48.633Z,5.57
2018-08-16T18:04:16.194Z,3.50
2018-08-16T18:06:43.735Z,4.27
2018-08-16T18:09:11.853Z,4.53
2018-08-16T18:11:39.399Z,3.57
2018-08-16T18:14:06.921Z,3.57
2018-08-16T18:16:34.525Z,3.53
2018-08-16T18:19:02.083Z,3.77
2018-08-16T18:21:29.504Z,3.87
2018-08-16T18:23:56.862Z,3.80
2018-08-16T18:26:25.285Z,4.77
2018-08-16T18:28:53.125Z,3.90
2018-08-16T18:31:20.663Z,5.87
2018-08-16T18:33:48.017Z,5.50
2018-08-16T18:36:15.530Z,5.20
2018-08-16T18:38:43.117Z,3.67
2018-08-16T18:41:10.655Z,5.70
2018-08-16T18:43:38.212Z,4.57
2018-08-16T18:46:06.276Z,5.27
2018-08-16T18:48:34.164Z,5.83
2018-08-16T18:51:01.529Z,7.37
2018-08-16T18:53:29.085Z,4.67
2018-08-16T18:55:56.338Z,5.93
2018-08-16T18:58:23.883Z,4.17
2018-08-16T19:00:51.254Z,4.07
2018-08-16T19:03:18.761Z,4.83
2018-08-16T19:05:46.109Z,3.70
2018-08-16T19:08:13.513Z,4.27
2018-08-16T19:10:40.849Z,4.30
2018-08-16T19:13:08.239Z,5.13
2018-08-16T19:15:35.648Z,3.97
2018-08-16T19:18:03.111Z,3.83
2018-08-16T19:20:31.832Z,4.00
2018-08-16T19:23:00.288Z,6.20
2018-08-16T19:25:28.189Z,5.47
2018-08-16T19:27:55.741Z,4.27
2018-08-16T19:30:23.558Z,6.50
2018-08-16T19:32:51.474Z,5.57
2018-08-16T19:35:19.351Z,4.07
2018-08-16T19:37:47.256Z,4.67
2018-08-16T19:40:15.921Z,7.30
2018-08-16T19:42:43.147Z,4.70
2018-08-16T19:45:10.567Z,3.90
2018-08-16T19:47:49.987Z,6.00
2018-08-16T19:50:45.882Z,4.57
2018-08-16T19:53:24.482Z,4.57
2018-08-16T19:55:54.324Z,4.40
2018-08-16T19:58:22.764Z,4.67
2018-08-16T20:00:51.911Z,4.77
2018-08-16T20:03:22.692Z,3.87
2018-08-16T20:05:50.488Z,5.03
2018-08-16T20:08:17.842Z,5.07
2018-08-16T20:10:45.382Z,5.87
2018-08-16T20:13:13.077Z,5.23
2018-08-16T20:15:42.155Z,4.00
2018-08-16T20:18:10.972Z,4.97
2018-08-16T20:20:39.276Z,6.13
2018-08-16T20:23:07.540Z,5.70
2018-08-16T20:25:35.481Z,4.50
2018-08-16T20:28:03.397Z,4.70
2018-08-16T20:30:31.607Z,7.83
2018-08-16T20:32:58.899Z,6.50
2018-08-16T20:35:26.308Z,5.00
2018-08-16T20:37:53.713Z,4.83
2018-08-16T20:40:21.127Z,4.93
2018-08-16T20:42:48.401Z,3.70
2018-08-16T20:45:15.866Z,5.27
2018-08-16T20:47:43.159Z,6.60
2018-08-16T20:50:10.732Z,4.87
2018-08-16T20:52:38.274Z,4.97
2018-08-16T20:55:05.653Z,4.33
2018-08-16T20:57:33.225Z,4.70
2018-08-16T21:00:01.026Z,8.63
2018-08-16T21:02:28.406Z,4.40
2018-08-16T21:04:55.813Z,6.50
2018-08-16T21:07:24.159Z,9.93
2018-08-16T21:09:51.554Z,5.03
2018-08-16T21:12:19.033Z,4.73
2018-08-16T21:14:46.436Z,7.30
2018-08-16T21:17:14.300Z,6.90
2018-08-16T21:19:42.195Z,8.73
2018-08-16T21:22:09.531Z,8.60
2018-08-16T21:24:37.025Z,5.23
2018-08-16T21:27:04.457Z,5.13
2018-08-16T21:29:31.822Z,7.70
2018-08-16T21:31:59.141Z,8.33
2018-08-16T21:34:27.333Z,14.60
2018-08-16T21:36:54.800Z,12.37
2018-08-16T21:39:22.314Z,12.50
2018-08-16T21:41:49.625Z,10.83
2018-08-16T21:44:16.937Z,21.53
2018-08-16T21:46:44.239Z,19.13
2018-08-16T21:49:11.695Z,20.83
2018-08-16T21:51:39.110Z,15.80
2018-08-16T21:54:06.680Z,14.90
2018-08-16T21:56:34.172Z,10.73
2018-08-16T21:59:01.704Z,13.80
2018-08-16T22:01:29.041Z,14.27
2018-08-16T22:03:56.884Z,16.70
2018-08-16T22:06:35.573Z,14.77
2018-08-16T22:09:03.179Z,13.03
2018-08-16T22:11:30.486Z,13.30
2018-08-16T22:13:57.909Z,11.50
2018-08-16T22:16:25.328Z,10.27
2018-08-16T22:18:52.760Z,16.23
2018-08-16T22:21:20.040Z,13.43
2018-08-16T22:23:47.370Z,15.00
2018-08-16T22:26:15.106Z,14.33
2018-08-16T22:28:42.351Z,15.17
2018-08-16T22:31:09.742Z,12.27
2018-08-16T22:33:37.212Z,17.87
2018-08-16T22:36:04.642Z,11.93
2018-08-16T22:38:31.924Z,11.50
2018-08-16T22:40:59.203Z,12.80
2018-08-16T22:43:26.581Z,15.80
2018-08-16T22:45:53.985Z,13.83
2018-08-16T22:48:21.279Z,10.40
2018-08-16T22:50:49.084Z,14.17
2018-08-16T22:53:17.524Z,13.57
2018-08-16T22:55:45.054Z,14.03
2018-08-16T22:58:12.401Z,11.87
2018-08-16T23:00:39.925Z,12.57
2018-08-16T23:03:07.277Z,16.93
2018-08-16T23:05:34.963Z,15.20
2018-08-16T23:08:02.306Z,15.67
2018-08-16T23:10:29.751Z,10.30
2018-08-16T23:12:57.221Z,9.20
2018-08-16T23:15:24.578Z,7.50
2018-08-16T23:17:51.866Z,9.80
2018-08-16T23:20:19.602Z,12.77
2018-08-16T23:22:46.858Z,10.77
2018-08-16T23:25:14.709Z,15.97
2018-08-16T23:27:42.049Z,10.90
2018-08-16T23:30:12.107Z,14.70
2018-08-16T23:32:40.659Z,13.10
2018-08-16T23:35:08.165Z,17.23
2018-08-16T23:37:35.674Z,14.07
2018-08-16T23:40:03.402Z,13.93
2018-08-16T23:42:30.772Z,14.27
2018-08-16T23:44:58.175Z,14.20
2018-08-16T23:47:26.131Z,16.87
2018-08-16T23:49:53.457Z,12.50
2018-08-16T23:52:22.033Z,10.67
2018-08-16T23:54:50.117Z,11.93
2018-08-16T23:57:17.770Z,12.97
2018-08-16T23:59:45.207Z,14.50
